createdAt,value
2023-05-22T00:02:10.879Z,11.57
2023-05-22T00:04:40.010Z,10.82
2023-05-22T00:07:09.641Z,10.77
2023-05-22T00:09:37.826Z,12.77
2023-05-22T00:12:06.960Z,10.98
2023-05-22T00:14:35.078Z,11.40
2023-05-22T00:17:03.468Z,11.50
2023-05-22T00:19:33.122Z,11.90
2023-05-22T00:22:01.492Z,11.52
2023-05-22T00:24:31.916Z,11.70
2023-05-22T00:27:00.100Z,11.60
2023-05-22T00:29:28.243Z,12.13
2023-05-22T00:31:56.422Z,11.00
2023-05-22T00:34:24.601Z,11.38
2023-05-22T00:36:52.795Z,11.45
2023-05-22T00:39:21.323Z,11.70
2023-05-22T00:41:50.857Z,11.88
2023-05-22T00:44:18.976Z,12.10
2023-05-22T00:46:47.197Z,11.75
2023-05-22T00:49:15.417Z,11.25
2023-05-22T00:51:43.734Z,10.85
2023-05-22T00:54:13.613Z,11.60
2023-05-22T00:56:43.566Z,10.82
2023-05-22T00:59:13.516Z,11.57
2023-05-22T01:01:42.985Z,11.40
2023-05-22T01:04:14.710Z,11.65
2023-05-22T01:06:42.932Z,10.82
2023-05-22T01:09:11.130Z,11.07
2023-05-22T01:11:49.060Z,11.88
2023-05-22T01:14:30.473Z,11.00
2023-05-22T01:17:11.269Z,11.18
2023-05-22T01:20:06.961Z,11.18
2023-05-22T01:23:30.729Z,10.85
2023-05-22T01:26:21.757Z,11.73
2023-05-22T01:29:31.817Z,13.00
2023-05-22T01:32:04.090Z,10.82
2023-05-22T01:34:36.498Z,12.35
2023-05-22T01:37:07.053Z,10.90
2023-05-22T01:39:36.656Z,11.30
2023-05-22T01:42:06.648Z,12.90
2023-05-22T01:44:34.793Z,11.88
2023-05-22T01:47:05.781Z,11.15
2023-05-22T01:49:35.657Z,11.50
2023-05-22T01:52:13.876Z,12.60
2023-05-22T01:54:52.687Z,11.73
2023-05-22T01:57:29.981Z,10.57
2023-05-22T02:00:09.813Z,11.38
2023-05-22T02:02:43.311Z,11.02
2023-05-22T02:05:13.651Z,10.85
2023-05-22T02:07:44.493Z,11.35
2023-05-22T02:10:15.009Z,11.35
2023-05-22T02:12:43.527Z,12.05
2023-05-22T02:15:12.701Z,11.98
2023-05-22T02:17:42.577Z,11.30
2023-05-22T02:20:15.083Z,10.68
2023-05-22T02:22:45.037Z,11.05
2023-05-22T02:25:15.164Z,10.65
2023-05-22T02:27:44.095Z,10.45
2023-05-22T02:30:13.312Z,11.00
2023-05-22T02:32:43.616Z,10.73
2023-05-22T02:35:11.973Z,10.32
2023-05-22T02:37:42.178Z,11.43
2023-05-22T02:40:11.693Z,12.20
2023-05-22T02:42:39.868Z,11.25
2023-05-22T02:45:10.029Z,10.55
2023-05-22T02:47:38.190Z,10.73
2023-05-22T02:50:09.010Z,10.70
2023-05-22T02:52:39.285Z,10.55
2023-05-22T02:55:09.144Z,10.43
2023-05-22T02:57:37.300Z,10.15
2023-05-22T03:00:06.923Z,11.32
2023-05-22T03:02:36.420Z,11.38
2023-05-22T03:05:05.391Z,11.00
2023-05-22T03:07:34.864Z,12.05
2023-05-22T03:10:03.000Z,10.98
2023-05-22T03:12:31.139Z,10.90
2023-05-22T03:14:59.256Z,11.45
2023-05-22T03:17:27.420Z,13.30
2023-05-22T03:19:55.587Z,10.70
2023-05-22T03:22:23.703Z,10.35
2023-05-22T03:24:53.475Z,10.32
2023-05-22T03:27:21.649Z,10.48
2023-05-22T03:29:49.789Z,11.10
2023-05-22T03:32:17.922Z,9.65
2023-05-22T03:34:46.236Z,10.07
2023-05-22T03:37:14.425Z,9.98
2023-05-22T03:39:42.638Z,10.20
2023-05-22T03:42:13.377Z,10.05
2023-05-22T03:44:41.527Z,10.65
2023-05-22T03:47:09.676Z,9.57
2023-05-22T03:49:37.796Z,12.25
2023-05-22T03:52:06.370Z,11.07
2023-05-22T03:54:34.550Z,9.73
2023-05-22T03:57:03.631Z,9.55
2023-05-22T03:59:33.130Z,9.02
2023-05-22T04:02:01.705Z,10.23
2023-05-22T04:04:29.948Z,9.88
2023-05-22T04:06:59.230Z,10.40
2023-05-22T04:09:28.454Z,9.38
2023-05-22T04:11:56.603Z,9.60
2023-05-22T04:14:24.794Z,9.90
2023-05-22T04:16:55.116Z,9.88
2023-05-22T04:19:23.335Z,10.20
2023-05-22T04:21:51.479Z,9.13
2023-05-22T04:24:19.674Z,10.15
2023-05-22T04:26:47.861Z,9.40
2023-05-22T04:29:16.519Z,9.20
2023-05-22T04:31:44.736Z,9.27
2023-05-22T04:34:17.127Z,9.27
2023-05-22T04:36:46.476Z,9.48
2023-05-22T04:39:15.804Z,10.00
2023-05-22T04:41:44.336Z,9.27
2023-05-22T04:44:12.439Z,9.65
2023-05-22T04:46:40.612Z,10.23
2023-05-22T04:49:08.924Z,9.65
2023-05-22T04:51:38.354Z,11.10
2023-05-22T04:54:06.524Z,8.82
2023-05-22T04:56:36.810Z,9.32
2023-05-22T04:59:08.712Z,10.48
2023-05-22T05:01:37.848Z,9.60
2023-05-22T05:04:06.590Z,9.18
2023-05-22T05:06:35.811Z,9.82
2023-05-22T05:09:05.551Z,9.60
2023-05-22T05:11:33.648Z,9.10
2023-05-22T05:14:01.754Z,10.02
2023-05-22T05:16:29.950Z,9.95
2023-05-22T05:18:58.271Z,10.30
2023-05-22T05:21:27.803Z,8.73
2023-05-22T05:23:56.020Z,10.85
2023-05-22T05:26:27.146Z,9.25
2023-05-22T05:28:56.596Z,13.35
2023-05-22T05:31:24.880Z,9.18
2023-05-22T05:33:53.051Z,9.23
2023-05-22T05:36:21.155Z,12.25
2023-05-22T05:38:49.206Z,10.57
2023-05-22T05:41:18.937Z,8.27
2023-05-22T05:43:48.495Z,8.50
2023-05-22T05:46:16.638Z,9.23
2023-05-22T05:48:44.791Z,9.38
2023-05-22T05:51:12.861Z,9.35
2023-05-22T05:53:41.589Z,10.38
2023-05-22T05:56:10.577Z,9.32
2023-05-22T05:58:38.976Z,10.43
2023-05-22T06:01:08.489Z,8.95
2023-05-22T06:03:36.642Z,8.70
2023-05-22T06:06:05.467Z,9.48
2023-05-22T06:08:34.435Z,11.70
2023-05-22T06:11:03.339Z,10.38
2023-05-22T06:13:31.416Z,12.02
2023-05-22T06:16:02.802Z,10.10
2023-05-22T06:18:34.386Z,9.57
2023-05-22T06:21:02.478Z,8.98
2023-05-22T06:23:30.842Z,8.85
2023-05-22T06:25:58.892Z,8.82
2023-05-22T06:28:26.943Z,8.68
2023-05-22T06:30:55.034Z,10.07
2023-05-22T06:33:23.269Z,8.52
2023-05-22T06:35:52.849Z,8.40
2023-05-22T06:38:20.951Z,9.05
2023-05-22T06:40:49.290Z,9.15
2023-05-22T06:43:17.548Z,8.38
2023-05-22T06:45:46.006Z,9.10
2023-05-22T06:48:14.216Z,8.65
2023-05-22T06:50:42.418Z,9.25
2023-05-22T06:53:12.625Z,10.15
2023-05-22T06:55:40.694Z,8.43
2023-05-22T06:58:08.800Z,9.85
2023-05-22T07:00:36.991Z,8.02
2023-05-22T07:03:06.684Z,7.97
2023-05-22T07:05:34.916Z,9.00
2023-05-22T07:08:03.057Z,7.80
2023-05-22T07:10:32.437Z,9.23
2023-05-22T07:13:00.556Z,7.97
2023-05-22T07:15:28.639Z,8.23
2023-05-22T07:17:56.820Z,8.82
2023-05-22T07:20:26.143Z,10.23
2023-05-22T07:22:54.307Z,8.10
2023-05-22T07:25:22.368Z,8.45
2023-05-22T07:27:52.013Z,8.43
2023-05-22T07:30:20.133Z,8.82
2023-05-22T07:32:49.440Z,8.07
2023-05-22T07:35:17.914Z,7.68
2023-05-22T07:37:46.061Z,8.38
2023-05-22T07:40:14.411Z,8.10
2023-05-22T07:42:42.567Z,9.20
2023-05-22T07:45:12.745Z,8.27
2023-05-22T07:47:40.839Z,8.07
2023-05-22T07:50:10.447Z,7.88
2023-05-22T07:52:38.679Z,10.43
2023-05-22T07:55:08.728Z,7.70
2023-05-22T07:57:36.888Z,7.82
2023-05-22T08:00:13.909Z,8.13
2023-05-22T08:02:44.035Z,7.18
2023-05-22T08:05:12.551Z,7.30
2023-05-22T08:07:40.779Z,7.72
2023-05-22T08:10:16.609Z,7.22
2023-05-22T08:12:45.093Z,7.80
2023-05-22T08:15:13.438Z,6.97
2023-05-22T08:17:42.992Z,8.00
2023-05-22T08:20:12.379Z,8.95
2023-05-22T08:22:41.345Z,6.85
2023-05-22T08:25:10.613Z,7.78
2023-05-22T08:31:44.646Z,9.07
2023-05-22T08:34:14.182Z,6.60
2023-05-22T08:36:42.320Z,7.38
2023-05-22T08:39:12.146Z,7.15
2023-05-22T08:41:40.364Z,7.35
2023-05-22T08:44:08.588Z,6.88
2023-05-22T08:46:38.214Z,8.63
2023-05-22T08:49:07.001Z,8.57
2023-05-22T08:51:42.266Z,7.53
2023-05-22T08:54:10.877Z,6.72
2023-05-22T08:56:52.976Z,8.98
2023-05-22T08:59:24.507Z,7.20
2023-05-22T09:01:53.834Z,10.05
2023-05-22T09:04:24.204Z,7.05
2023-05-22T09:06:55.127Z,7.32
2023-05-22T09:09:23.384Z,7.63
2023-05-22T09:11:51.849Z,9.65
2023-05-22T09:14:20.395Z,6.25
2023-05-22T09:16:51.120Z,6.25
2023-05-22T09:19:20.053Z,6.53
2023-05-22T09:21:48.606Z,7.72
2023-05-22T09:24:18.201Z,6.13
2023-05-22T09:26:46.423Z,5.90
2023-05-22T09:29:14.598Z,5.57
2023-05-22T09:31:45.127Z,5.43
2023-05-22T09:34:15.404Z,5.93
2023-05-22T09:36:45.299Z,5.72
2023-05-22T09:39:13.679Z,5.68
2023-05-22T09:41:45.801Z,7.45
2023-05-22T09:44:15.012Z,5.82
2023-05-22T09:46:45.257Z,5.10
2023-05-22T09:49:16.414Z,6.43
2023-05-22T09:51:48.787Z,5.90
2023-05-22T09:54:21.677Z,8.35
2023-05-22T09:56:56.169Z,5.90
2023-05-22T09:59:31.405Z,7.45
2023-05-22T10:02:01.817Z,5.60
2023-05-22T10:04:35.750Z,8.95
2023-05-22T10:07:04.853Z,6.03
2023-05-22T10:09:37.066Z,6.47
2023-05-22T10:12:10.765Z,6.35
2023-05-22T10:14:39.074Z,5.93
2023-05-22T10:17:07.940Z,5.80
2023-05-22T10:19:40.692Z,5.47
2023-05-22T10:22:20.638Z,13.80
2023-05-22T10:24:49.575Z,6.55
2023-05-22T10:27:19.276Z,6.18
2023-05-22T10:29:58.204Z,7.28
2023-05-22T10:32:36.735Z,5.88
2023-05-22T10:35:19.418Z,6.40
2023-05-22T10:37:54.237Z,5.70
2023-05-22T10:40:30.253Z,9.00
2023-05-22T10:43:01.801Z,5.78
2023-05-22T10:45:31.670Z,6.07
2023-05-22T10:48:08.001Z,6.07
2023-05-22T10:50:37.717Z,8.38
2023-05-22T10:53:24.828Z,6.43
2023-05-22T10:55:54.653Z,6.47
2023-05-22T10:58:30.374Z,6.20
2023-05-22T11:01:15.867Z,6.68
2023-05-22T11:03:56.216Z,5.53
2023-05-22T11:06:36.504Z,5.35
2023-05-22T11:09:28.861Z,6.05
2023-05-22T11:12:27.406Z,6.57
2023-05-22T11:14:59.520Z,5.70
2023-05-22T11:17:29.704Z,6.03
2023-05-22T11:20:05.171Z,6.88
2023-05-22T11:22:36.576Z,6.07
2023-05-22T11:25:11.593Z,5.40
2023-05-22T11:27:42.773Z,10.20
2023-05-22T11:30:15.864Z,5.53
2023-05-22T11:32:46.565Z,5.75
2023-05-22T11:35:19.912Z,5.28
2023-05-22T11:37:49.909Z,6.28
2023-05-22T11:40:20.981Z,5.90
2023-05-22T11:42:49.556Z,5.15
2023-05-22T11:45:19.093Z,8.68
2023-05-22T11:47:48.495Z,6.75
2023-05-22T11:50:22.606Z,6.93
2023-05-22T11:52:56.270Z,5.30
2023-05-22T11:55:25.163Z,7.90
2023-05-22T11:57:56.830Z,5.00
2023-05-22T12:00:26.808Z,5.40
2023-05-22T12:02:55.943Z,7.15
2023-05-22T12:05:24.086Z,5.00
2023-05-22T12:07:52.434Z,7.32
2023-05-22T12:10:20.921Z,5.22
2023-05-22T12:12:49.130Z,5.07
2023-05-22T12:15:21.014Z,5.13
2023-05-22T12:17:50.475Z,7.00
2023-05-22T12:20:18.683Z,6.47
2023-05-22T12:22:46.843Z,5.43
2023-05-22T12:25:17.518Z,5.47
2023-05-22T12:27:46.214Z,5.35
2023-05-22T12:30:16.600Z,5.90
2023-05-22T12:32:51.580Z,5.57
2023-05-22T12:35:20.701Z,5.20
2023-05-22T12:37:53.096Z,5.15
2023-05-22T12:40:21.186Z,5.63
2023-05-22T12:42:50.097Z,7.40
2023-05-22T12:45:18.817Z,5.25
2023-05-22T12:47:47.123Z,5.63
2023-05-22T12:50:16.875Z,5.22
2023-05-22T12:52:44.988Z,7.32
2023-05-22T12:55:13.122Z,5.07
2023-05-22T12:57:41.207Z,7.47
2023-05-22T13:00:11.181Z,5.13
2023-05-22T13:02:39.414Z,5.85
2023-05-22T13:05:08.508Z,5.20
2023-05-22T13:07:38.552Z,5.18
2023-05-22T13:10:08.221Z,5.03
2023-05-22T13:12:36.305Z,6.72
2023-05-22T13:15:04.562Z,6.95
2023-05-22T13:17:32.714Z,5.30
2023-05-22T13:20:01.120Z,5.30
2023-05-22T13:22:29.429Z,4.63
2023-05-22T13:24:58.810Z,6.30
2023-05-22T13:27:27.441Z,5.93
2023-05-22T13:29:55.532Z,7.80
2023-05-22T13:32:23.649Z,6.18
2023-05-22T13:34:51.801Z,5.03
2023-05-22T13:37:20.044Z,4.68
2023-05-22T13:39:48.358Z,6.85
2023-05-22T13:42:17.856Z,4.70
2023-05-22T13:44:46.007Z,5.22
2023-05-22T13:47:14.136Z,9.45
2023-05-22T13:49:42.262Z,4.72
2023-05-22T13:52:10.403Z,6.90
2023-05-22T13:54:38.440Z,7.35
2023-05-22T13:57:07.590Z,5.13
2023-05-22T13:59:37.005Z,5.60
2023-05-22T14:02:05.683Z,6.20
2023-05-22T14:04:33.950Z,5.15
2023-05-22T14:07:02.011Z,5.20
2023-05-22T14:09:31.137Z,4.68
2023-05-22T14:11:59.195Z,7.55
2023-05-22T14:14:27.291Z,4.75
2023-05-22T14:16:56.810Z,5.13
2023-05-22T14:19:25.467Z,5.15
2023-05-22T14:21:53.624Z,9.48
2023-05-22T14:24:21.802Z,6.43
2023-05-22T14:26:49.836Z,4.30
2023-05-22T14:29:18.194Z,4.47
2023-05-22T14:31:49.796Z,4.05
2023-05-22T14:34:20.927Z,3.80
2023-05-22T14:36:48.960Z,4.90
2023-05-22T14:39:17.077Z,4.13
2023-05-22T14:41:45.192Z,4.88
2023-05-22T14:44:13.252Z,6.97
2023-05-22T14:46:41.305Z,5.28
2023-05-22T14:49:09.406Z,6.80
2023-05-22T14:51:38.788Z,4.28
2023-05-22T14:54:07.698Z,5.13
2023-05-22T14:56:35.988Z,3.72
2023-05-22T14:59:04.057Z,4.55
2023-05-22T15:01:32.151Z,3.75
2023-05-22T15:04:00.256Z,3.90
2023-05-22T15:06:28.943Z,4.63
2023-05-22T15:08:58.373Z,4.20
2023-05-22T15:11:27.158Z,5.85
2023-05-22T15:13:55.426Z,4.85
2023-05-22T15:16:23.593Z,7.75
2023-05-22T15:18:52.373Z,4.45
2023-05-22T15:21:20.558Z,6.28
2023-05-22T15:23:48.617Z,4.20
2023-05-22T15:26:18.084Z,5.30
2023-05-22T15:28:46.156Z,3.65
2023-05-22T15:31:14.847Z,3.97
2023-05-22T15:33:43.037Z,5.68
2023-05-22T15:36:11.086Z,4.07
2023-05-22T15:38:39.212Z,4.00
2023-05-22T15:41:07.298Z,4.28
2023-05-22T15:43:36.714Z,5.57
2023-05-22T15:46:04.985Z,5.22
2023-05-22T15:48:33.307Z,4.57
2023-05-22T15:51:01.423Z,7.30
2023-05-22T15:53:29.436Z,6.75
2023-05-22T15:55:57.478Z,4.40
2023-05-22T15:58:25.561Z,4.53
2023-05-22T16:00:56.589Z,5.10
2023-05-22T16:03:25.124Z,4.28
2023-05-22T16:05:53.528Z,3.92
2023-05-22T16:08:21.634Z,4.30
2023-05-22T16:10:49.806Z,4.32
2023-05-22T16:13:18.114Z,5.15
2023-05-22T16:15:46.175Z,4.15
2023-05-22T16:18:15.613Z,4.10
2023-05-22T16:20:43.678Z,5.53
2023-05-22T16:23:11.691Z,4.90
2023-05-22T16:25:39.828Z,6.10
2023-05-22T16:28:08.129Z,6.88
2023-05-22T16:30:36.568Z,7.75
2023-05-22T16:33:04.857Z,6.30
2023-05-22T16:35:34.349Z,4.60
2023-05-22T16:38:03.464Z,4.80
2023-05-22T16:40:31.617Z,4.10
2023-05-22T16:42:59.678Z,5.05
2023-05-22T16:45:27.872Z,10.00
2023-05-22T16:47:56.269Z,4.47
2023-05-22T16:50:24.424Z,4.82
2023-05-22T16:52:53.839Z,7.97
2023-05-22T16:55:22.108Z,5.90
2023-05-22T16:57:50.435Z,5.57
2023-05-22T17:00:20.096Z,6.05
2023-05-22T17:02:48.538Z,4.55
2023-05-22T17:05:16.747Z,4.65
2023-05-22T17:07:44.816Z,6.40
2023-05-22T17:10:14.905Z,3.88
2023-05-22T17:12:42.972Z,4.65
2023-05-22T17:15:12.686Z,6.05
2023-05-22T17:17:40.791Z,6.05
2023-05-22T17:20:11.677Z,5.53
2023-05-22T17:22:40.089Z,8.13
2023-05-22T17:25:09.593Z,4.20
2023-05-22T17:27:38.972Z,4.40
2023-05-22T17:30:08.771Z,3.83
2023-05-22T17:32:37.097Z,4.07
2023-05-22T17:35:06.445Z,6.03
2023-05-22T17:37:34.822Z,4.53
2023-05-22T17:40:03.840Z,5.93
2023-05-22T17:42:31.898Z,5.72
2023-05-22T17:45:01.298Z,5.15
2023-05-22T17:47:29.349Z,4.72
2023-05-22T17:49:57.442Z,4.97
2023-05-22T17:52:25.701Z,5.03
2023-05-22T17:54:55.851Z,6.03
2023-05-22T17:57:23.992Z,6.03
2023-05-22T17:59:52.096Z,6.88
2023-05-22T18:02:21.648Z,6.00
2023-05-22T18:04:49.849Z,7.30
2023-05-22T18:07:19.214Z,6.95
2023-05-22T18:09:47.391Z,4.40
2023-05-22T18:12:31.316Z,5.97
2023-05-22T18:15:00.762Z,5.32
2023-05-22T18:17:30.435Z,4.32
2023-05-22T18:19:58.618Z,5.20
2023-05-22T18:22:26.785Z,6.82
2023-05-22T18:25:01.292Z,5.85
2023-05-22T18:27:29.450Z,4.35
2023-05-22T18:29:58.205Z,4.10
2023-05-22T18:32:26.487Z,3.90
2023-05-22T18:34:58.424Z,4.25
2023-05-22T18:37:26.598Z,5.57
2023-05-22T18:39:54.787Z,4.45
2023-05-22T18:42:22.919Z,4.13
2023-05-22T18:44:51.094Z,4.30
2023-05-22T18:47:19.228Z,5.18
2023-05-22T18:49:47.430Z,4.85
2023-05-22T18:52:16.946Z,4.38
2023-05-22T18:54:45.061Z,6.35
2023-05-22T18:57:13.849Z,4.10
2023-05-22T18:59:42.343Z,7.00
2023-05-22T19:02:10.640Z,5.32
2023-05-22T19:04:38.868Z,4.90
2023-05-22T19:07:07.806Z,4.25
2023-05-22T19:09:38.252Z,6.25
2023-05-22T19:12:07.377Z,4.80
2023-05-22T19:14:35.576Z,9.73
2023-05-22T19:17:03.774Z,6.45
2023-05-22T19:19:31.971Z,6.82
2023-05-22T19:22:00.184Z,4.38
2023-05-22T19:24:28.476Z,6.32
2023-05-22T19:26:58.035Z,8.43
2023-05-22T19:29:26.193Z,4.32
2023-05-22T19:31:54.379Z,6.53
2023-05-22T19:34:22.555Z,4.60
2023-05-22T19:36:51.730Z,4.53
2023-05-22T19:39:19.856Z,4.40
2023-05-22T19:41:48.001Z,6.38
2023-05-22T19:44:17.516Z,4.85
2023-05-22T19:46:46.231Z,10.25
2023-05-22T19:49:14.666Z,4.13
2023-05-22T19:51:44.041Z,4.95
2023-05-22T19:54:12.253Z,4.38
2023-05-22T19:56:40.414Z,5.82
2023-05-22T19:59:08.529Z,4.38
2023-05-22T20:01:38.080Z,4.47
2023-05-22T20:04:06.230Z,7.88
2023-05-22T20:06:35.072Z,4.38
2023-05-22T20:09:05.725Z,5.35
2023-05-22T20:11:33.903Z,4.72
2023-05-22T20:14:03.376Z,5.72
2023-05-22T20:16:31.816Z,4.28
2023-05-22T20:19:02.364Z,4.30
2023-05-22T20:21:30.920Z,6.18
2023-05-22T20:23:59.149Z,4.30
2023-05-22T20:26:27.674Z,5.57
2023-05-22T20:28:55.788Z,5.88
2023-05-22T20:31:23.913Z,4.72
2023-05-22T20:33:52.096Z,5.43
2023-05-22T20:36:22.298Z,8.05
2023-05-22T20:38:50.422Z,5.05
2023-05-22T20:41:19.538Z,5.65
2023-05-22T20:43:47.998Z,4.43
2023-05-22T20:46:16.185Z,5.13
2023-05-22T20:48:46.852Z,4.95
2023-05-22T20:51:15.602Z,5.05
2023-05-22T20:53:45.175Z,7.95
2023-05-22T20:56:13.311Z,4.28
2023-05-22T20:58:42.348Z,4.82
2023-05-22T21:01:10.676Z,6.53
2023-05-22T21:03:39.011Z,8.02
2023-05-22T21:06:07.659Z,5.97
2023-05-22T21:08:35.789Z,8.40
2023-05-22T21:11:06.820Z,5.80
2023-05-22T21:13:34.926Z,7.03
2023-05-22T21:16:03.032Z,5.75
2023-05-22T21:18:31.198Z,6.57
2023-05-22T21:20:59.386Z,5.43
2023-05-22T21:23:27.568Z,5.90
2023-05-22T21:25:55.785Z,6.05
2023-05-22T21:28:25.409Z,5.88
2023-05-22T21:30:53.550Z,8.48
2023-05-22T21:33:21.742Z,6.22
2023-05-22T21:35:50.096Z,5.97
2023-05-22T21:38:18.227Z,7.22
2023-05-22T21:40:46.405Z,4.53
2023-05-22T21:43:14.601Z,5.05
2023-05-22T21:45:44.093Z,6.63
2023-05-22T21:48:12.355Z,4.80
2023-05-22T21:50:40.768Z,7.55
2023-05-22T21:53:09.059Z,4.47
2023-05-22T21:55:37.235Z,4.82
2023-05-22T21:58:05.406Z,5.82
2023-05-22T22:00:33.524Z,6.82
2023-05-22T22:03:03.232Z,5.75
2023-05-22T22:05:31.450Z,4.88
2023-05-22T22:07:59.598Z,4.50
2023-05-22T22:10:27.738Z,6.57
2023-05-22T22:12:55.994Z,7.05
2023-05-22T22:15:24.405Z,9.15
2023-05-22T22:17:53.216Z,5.47
2023-05-22T22:20:30.507Z,6.00
2023-05-22T22:23:02.145Z,6.10
2023-05-22T22:25:30.287Z,5.57
2023-05-22T22:27:58.493Z,8.00
2023-05-22T22:30:26.674Z,4.57
2023-05-22T22:32:54.848Z,5.40
2023-05-22T22:35:24.408Z,6.88
2023-05-22T22:37:52.563Z,5.43
2023-05-22T22:40:20.756Z,5.80
2023-05-22T22:42:48.881Z,7.40
2023-05-22T22:45:17.055Z,6.43
2023-05-22T22:47:47.353Z,5.10
2023-05-22T22:50:15.960Z,6.53
2023-05-22T22:52:46.574Z,4.88
2023-05-22T22:55:14.849Z,6.68
2023-05-22T22:57:44.657Z,6.70
2023-05-22T23:00:14.256Z,6.13
2023-05-22T23:02:42.554Z,6.15
2023-05-22T23:05:11.326Z,5.45
2023-05-22T23:07:39.537Z,5.25
2023-05-22T23:10:10.691Z,8.68
2023-05-22T23:12:38.836Z,6.50
2023-05-22T23:15:09.100Z,6.75
2023-05-22T23:17:37.430Z,6.93
2023-05-22T23:20:07.090Z,7.85
2023-05-22T23:22:35.278Z,7.45
2023-05-22T23:25:03.736Z,5.85
2023-05-22T23:27:33.304Z,7.32
2023-05-22T23:30:01.537Z,5.53
2023-05-22T23:32:29.888Z,5.53
2023-05-22T23:34:58.062Z,5.65
2023-05-22T23:37:26.218Z,5.30
2023-05-22T23:39:55.347Z,5.63
2023-05-22T23:42:23.457Z,5.38
2023-05-22T23:44:52.966Z,4.95
2023-05-22T23:47:21.387Z,6.13
2023-05-22T23:49:49.557Z,5.80
2023-05-22T23:52:17.707Z,5.85
2023-05-22T23:54:46.508Z,6.50
2023-05-22T23:57:14.738Z,6.35
2023-05-22T23:59:43.657Z,7.68
